Pagina principale
METAR-TAF:

METAR-TAF

Aeroporti :

Saskatoon, Saskatchewan, Canada

latitudine: 52-10N, longitudine: 106-41W, altezza: 501 m

Osservazione

Il bollettino è stato emesso 16 minuti fa, alle 22:00 UTC
Vento 4 kt da nord, variando fra ovest/nord-ovest e nord
Temperature 23°C
Umidità 33%
Pressione 1018 hPa
Visibilità: 24.1 km
Nubi sparse ad un'altezza di 7000 ft

METAR: CYXE 172200Z 36004KT 290V010 15SM SCT070 23/06 A3007 RMK CU4 SLP194 DENSITY ALT 2900FT

Ora: 16:16 (22:16 UTC)

Previsione

Il bollettino è stato emesso 4 ore e 36 minuti fa, alle 17:40 UTC
Previsione valida dal 17 alle 18 UTC al 18 alle 18 UTC
Vento 8 kt da ovest/nord-ovest
Visibilità: 10 km
Nubi sparse ad un'altezza di 7000 ft
A partire da 18 alle 0200 UTC
Vento 3 kt da direzioni variabili
Visibilità: 10 km
Cielo sereno

TAF: CYXE 171740Z 1718/1818 30008KT P6SM SCT070 FM180200 VRB03KT P6SM SKC RMK NXT FCST BY 180000Z

Osservazioni e previsioni meteorologiche di più di 4000 aeroporti (messaggi METAR e TAF).

Le stazioni disponibili sono rappresentate dai dischi gialli e rossi sulla carta.

Puntare il mouse per vedere il nome della stazione.

Clicca sopra per visualizzare le osservazioni e previsioni meteorologiche.

Per cambiare la mappa : fare clic sui pulsanti verdi con una croce nera per ingrandire, il pulsante verde con un trattino per diminuire, o sulla freccia verde per le mappe adiacenti.


METAR-TAF: